Milford, MI

8:27 AM EST on December 20, 2014 (GMT -0500)
West Milford Township | Change Station
CLOSE
Current Station
Personal Weather Station
Location: Milford, MI
Elevation: 994 ft
Nearby Weather Stations

Elev 994 ft 42.59 °N, 83.63 °W | Updated 2 minutes ago

Overcast
Overcast
25.5 °F
Feels Like 26 °F
N
0.0
Wind Variable Wind from WSW
Gusts 0.0 mph

Today
High -- | Low -- °F
--% Chance of Precip.
Yesterday
High -- | Low -- °F
Precip. -- in
8:00 AM 5:03 PM
Waning Crescent, 3% visible
Pressure 30.32 in
Visibility 9.0 miles
Clouds Mostly Cloudy 2200 ft
Overcast 20000 ft
Windchill 26 °F
Dew Point 21 °F
Humidity 83%
Rainfall -999.00 in
Snow Depth Not available.
UV 0 out of 12
Pollen .10 out of 12
Air Quality Not available.
Flu Activity Not available.
METAR KPTK 201253Z 00000KT 9SM BKN022 OVC200 M06/M07 A3027 RMK AO2 SLP266 T10561072

More Conditions Fewer Conditions

Pressure 30.32 in
Visibility 9.0 miles
Clouds Mostly Cloudy 2200 ft
Overcast 20000 ft
Windchill 26 °F
Dew Point 21 °F
Humidity 83%
Rainfall -999.00 in
Snow Depth Not available.
UV 0 out of 12
Pollen .10 out of 12
Air Quality Not available.
Flu Activity Not available.
METAR KPTK 201253Z 00000KT 9SM BKN022 OVC200 M06/M07 A3027 RMK AO2 SLP266 T10561072

More Conditions Fewer Conditions

10-Day Weather Forecast

Almanac

Astronomy

Dec. 20, 2014 Rise Set
Actual Time
Civil Twilight
Nautical Twilight
Astronomical Twilight
Moon
Length of Visible Light
Length of Day
Tomorrow will be .
, % of the Moon is Illuminated

Today's Extremes

State Highs State Lows

Community

WunderPhotos

Upload Photos

1,779,169 photos uploaded!

WunderBlogs® & News

Nearby

Air Quality

  Air Quality AQ Index Pollutant
Not available.

Snow Depth

Station Depth Elevation

Earthquake Activity

City Distance Mag. Time & Date
Minimum magnitude displayed is 2.5.

Coastal Water Temperatures

Place Temperature

Nearby Weather Stations